Time;durP1;ratioP1;P1;durP2;ratioP2;P2;SDS_P1;SDS_P2;PMS_P1;PMS_P2;Temp;Humidity;BMP_temperature;BMP_pressure;BME280_temperature;BME280_humidity;BME280_pressure;Samples;Min_cycle;Max_cycle;Signal;HPM_P1;HPM_P2
2022/05/23 00:00:33;;;;;;;4.37;2.85;;;;;;;11.20;75.53;100432.03;1588693;89;25337;-82
2022/05/23 00:03:00;;;;;;;4.70;2.62;;;;;;;11.18;75.45;100429.22;1585485;89;25538;-82
2022/05/23 00:05:27;;;;;;;6.42;2.62;;;;;;;11.19;75.57;100430.86;1585105;89;25948;-82
2022/05/23 00:07:54;;;;;;;8.90;3.20;;;;;;;11.19;75.56;100428.17;1587236;89;27664;-82
2022/05/23 00:10:21;;;;;;;7.58;3.00;;;;;;;11.21;75.76;100428.30;1587538;89;25455;-82
2022/05/23 00:12:48;;;;;;;10.48;3.47;;;;;;;11.24;75.95;100429.27;1586397;89;26832;-82
2022/05/23 00:15:15;;;;;;;5.70;3.47;;;;;;;11.25;75.92;100428.23;1563389;90;26064;-83
2022/05/23 00:17:41;;;;;;;7.47;3.02;;;;;;;11.22;76.05;100427.30;1586170;89;26553;-82
2022/05/23 00:20:11;;;;;;;7.00;3.50;;;;;;;11.20;75.91;100430.69;1586734;89;27745;-82
2022/05/23 00:22:38;;;;;;;7.28;3.98;;;;;;;11.19;75.94;100429.52;1587545;89;26016;-82
2022/05/23 00:25:09;;;;;;;6.25;3.27;;;;;;;11.19;76.27;100429.02;1587375;89;25381;-82
2022/05/23 00:27:39;;;;;;;4.15;3.20;;;;;;;11.19;76.05;100430.86;1586566;89;26652;-82
2022/05/23 00:30:14;;;;;;;6.12;3.80;;;;;;;11.20;76.21;100433.87;1586426;89;26977;-83
2022/05/23 00:35:26;;;;;;;8.48;3.83;;;;;;;11.15;76.27;100438.98;1586884;89;26199;-82
2022/05/23 00:37:59;;;;;;;6.75;3.05;;;;;;;11.09;76.23;100436.58;1586198;89;25895;-82
2022/05/23 00:40:47;;;;;;;4.80;3.65;;;;;;;11.05;76.24;100443.85;1589155;89;25805;-82
2022/05/23 00:43:22;;;;;;;6.30;3.25;;;;;;;11.07;76.40;100448.50;1580127;89;25936;-82
2022/05/23 00:45:56;;;;;;;8.25;3.47;;;;;;;11.05;76.64;100447.37;1586678;89;27498;-82
2022/05/23 00:48:27;;;;;;;7.25;3.40;;;;;;;11.03;76.66;100445.89;1586438;89;25755;-82
2022/05/23 00:51:03;;;;;;;6.92;3.87;;;;;;;11.01;76.90;100446.61;1609221;88;25789;-82
2022/05/23 00:53:40;;;;;;;7.78;4.20;;;;;;;10.97;77.03;100447.48;1607298;87;25890;-82
2022/05/23 00:56:11;;;;;;;6.37;3.12;;;;;;;10.93;77.05;100449.42;1576104;89;26450;-82
2022/05/23 00:58:43;;;;;;;7.12;3.95;;;;;;;10.90;77.12;100456.50;1586918;89;28390;-82
2022/05/23 01:01:13;;;;;;;9.53;3.65;;;;;;;10.87;77.29;100453.69;1582064;89;26064;-82
2022/05/23 01:03:40;;;;;;;11.97;3.60;;;;;;;10.82;77.45;100454.26;1588711;89;26449;-83
2022/05/23 01:06:07;;;;;;;14.40;4.50;;;;;;;10.81;77.50;100453.12;1584320;89;25953;-82
2022/05/23 01:08:39;;;;;;;6.80;3.70;;;;;;;10.78;77.46;100457.00;1588029;88;25921;-82
2022/05/23 01:11:08;;;;;;;8.05;4.05;;;;;;;10.80;77.79;100452.78;1584463;88;27495;-82
2022/05/23 01:13:35;;;;;;;8.23;3.75;;;;;;;10.78;78.10;100458.84;1583444;89;26144;-83
2022/05/23 01:16:02;;;;;;;6.72;3.92;;;;;;;10.74;77.95;100465.61;1604965;87;25838;-82
2022/05/23 01:18:31;;;;;;;8.38;3.55;;;;;;;10.74;78.09;100465.61;1589686;88;25970;-82
2022/05/23 01:21:01;;;;;;;9.90;4.15;;;;;;;10.72;77.97;100464.97;1622124;87;26533;-82
2022/05/23 01:23:42;;;;;;;6.43;3.90;;;;;;;10.74;78.10;100466.95;1618703;87;27656;-82
2022/05/23 01:26:10;;;;;;;8.53;4.53;;;;;;;10.74;78.18;100464.27;1610561;87;25846;-81
2022/05/23 01:28:41;;;;;;;8.63;3.60;;;;;;;10.73;78.19;100461.29;1602574;87;25384;-81
2022/05/23 01:31:12;;;;;;;6.50;3.85;;;;;;;10.73;78.47;100458.61;1561751;90;26082;-82
2022/05/23 01:33:40;;;;;;;5.17;3.30;;;;;;;10.71;78.35;100458.78;1587909;89;26074;-82
2022/05/23 01:36:13;;;;;;;8.53;3.77;;;;;;;10.71;78.37;100459.31;1587854;89;27483;-82
2022/05/23 01:38:41;;;;;;;7.37;3.72;;;;;;;10.71;78.64;100452.62;1588293;89;25873;-82
2022/05/23 01:41:15;;;;;;;10.00;3.95;;;;;;;10.70;78.57;100457.14;1587115;89;25833;-82
2022/05/23 01:43:43;;;;;;;7.70;3.95;;;;;;;10.72;78.46;100455.09;1586878;89;26390;-82
2022/05/23 01:46:24;;;;;;;6.75;3.87;;;;;;;10.71;78.47;100450.74;1593459;88;26024;-82
2022/05/23 01:49:04;;;;;;;6.17;4.37;;;;;;;10.71;78.64;100456.63;1582826;89;27496;-82
2022/05/23 01:51:30;;;;;;;8.43;4.30;;;;;;;10.72;78.72;100455.09;1584316;88;25884;-82
2022/05/23 01:53:56;;;;;;;6.62;4.08;;;;;;;10.75;78.71;100463.27;1600855;87;25863;-81
2022/05/23 01:56:23;;;;;;;8.28;4.03;;;;;;;10.75;78.59;100457.41;1597398;88;26524;-82
2022/05/23 02:01:37;;;;;;;5.85;4.03;;;;;;;10.77;78.64;100460.72;1585682;89;28411;-82
2022/05/23 02:04:04;;;;;;;7.55;4.12;;;;;;;10.78;78.65;100457.00;1587573;89;25917;-82
2022/05/23 02:06:32;;;;;;;5.62;3.77;;;;;;;10.81;78.67;100455.30;1593600;89;25793;-82
2022/05/23 02:09:00;;;;;;;4.53;3.55;;;;;;;10.83;78.48;100449.73;1606730;87;25970;-81
2022/05/23 02:11:29;;;;;;;7.17;3.77;;;;;;;10.88;78.61;100448.66;1590707;89;25342;-82
2022/05/23 02:13:55;;;;;;;11.35;5.22;;;;;;;10.89;78.48;100446.28;1585947;88;27544;-82
2022/05/23 02:16:24;;;;;;;8.15;3.80;;;;;;;10.93;78.41;100452.91;1592213;89;25965;-82
2022/05/23 02:18:55;;;;;;;7.17;4.55;;;;;;;10.95;78.36;100450.87;1586408;89;25908;-82
2022/05/23 02:21:22;;;;;;;8.25;3.92;;;;;;;10.97;78.31;100450.70;1591599;89;25768;-82
2022/05/23 02:23:48;;;;;;;5.25;3.85;;;;;;;10.95;78.16;100450.87;1608999;88;25936;-83
2022/05/23 02:26:14;;;;;;;10.00;4.85;;;;;;;10.97;78.18;100448.02;1610184;88;27462;-82
2022/05/23 02:28:42;;;;;;;7.47;4.47;;;;;;;10.97;78.08;100441.31;1619951;86;26606;-82
2022/05/23 02:31:08;;;;;;;7.37;3.87;;;;;;;10.98;78.16;100446.98;1620843;87;25954;-82
2022/05/23 02:33:37;;;;;;;6.15;4.33;;;;;;;10.94;78.00;100451.07;1608947;87;25943;-82
2022/05/23 02:36:08;;;;;;;5.53;4.05;;;;;;;10.92;78.01;100451.77;1591217;88;25405;-82
2022/05/23 02:38:35;;;;;;;7.08;4.47;;;;;;;10.93;78.05;100455.59;1590335;88;27652;-82
2022/05/23 02:41:01;;;;;;;8.48;4.17;;;;;;;10.92;78.09;100458.47;1611542;87;25894;-82
2022/05/23 02:43:30;;;;;;;7.55;5.12;;;;;;;10.92;78.19;100455.29;1604016;86;25936;-82
2022/05/23 02:45:56;;;;;;;8.98;4.37;;;;;;;10.92;78.26;100456.63;1570611;89;25892;-82
2022/05/23 02:48:23;;;;;;;8.50;4.62;;;;;;;10.93;78.27;100456.12;1588769;89;25941;-82
2022/05/23 02:50:49;;;;;;;6.33;4.20;;;;;;;10.94;78.30;100453.24;1588770;89;27439;-82
2022/05/23 02:53:15;;;;;;;7.33;4.30;;;;;;;10.92;78.37;100455.29;1562038;90;25411;-82
2022/05/23 02:55:46;;;;;;;8.55;4.42;;;;;;;10.92;78.48;100451.77;1592497;88;25382;-82
2022/05/23 02:58:13;;;;;;;8.30;5.00;;;;;;;10.94;78.48;100453.24;1593960;88;26743;-82
2022/05/23 03:00:39;;;;;;;10.43;4.67;;;;;;;10.94;78.57;100451.91;1596599;88;25990;-82
2022/05/23 03:03:08;;;;;;;7.75;4.35;;;;;;;10.93;78.52;100457.47;1596990;88;28207;-82
2022/05/23 03:05:44;;;;;;;7.00;4.80;;;;;;;10.91;78.44;100451.44;1593650;88;26156;-81
2022/05/23 03:08:14;;;;;;;7.10;4.40;;;;;;;10.92;78.64;100444.57;1596264;88;25862;-81
2022/05/23 03:10:41;;;;;;;6.80;4.35;;;;;;;10.92;78.49;100448.59;1609734;88;26691;-82
2022/05/23 03:13:09;;;;;;;9.18;4.28;;;;;;;10.90;78.58;100445.27;1615464;87;26199;-81
2022/05/23 03:15:35;;;;;;;10.58;5.40;;;;;;;10.88;78.67;100443.30;1609648;88;27644;-82
2022/05/23 03:18:02;;;;;;;6.62;4.50;;;;;;;10.83;78.70;100442.53;1604724;89;26562;-82
2022/05/23 03:20:30;;;;;;;8.63;5.22;;;;;;;10.81;78.79;100444.58;1618362;86;25877;-81
2022/05/23 03:28:27;;;;;;;9.58;4.97;;;;;;;10.81;79.00;100449.94;1587332;89;28314;-82
2022/05/23 03:30:53;;;;;;;6.92;4.60;;;;;;;10.76;78.87;100453.69;1588537;89;25820;-82
2022/05/23 03:33:22;;;;;;;6.83;4.78;;;;;;;10.77;79.02;100455.87;1592224;88;25897;-82
2022/05/23 03:35:49;;;;;;;9.13;5.33;;;;;;;10.74;79.07;100460.25;1589049;89;26551;-82
2022/05/23 03:38:17;;;;;;;9.10;4.60;;;;;;;10.70;79.23;100455.80;1589164;89;25822;-81
2022/05/23 03:40:44;;;;;;;9.40;4.78;;;;;;;10.70;79.44;100457.14;1586689;89;27467;-82
2022/05/23 03:43:11;;;;;;;12.18;5.50;;;;;;;10.71;79.40;100453.42;1592208;87;25906;-81
2022/05/23 03:45:37;;;;;;;6.75;4.95;;;;;;;10.72;79.54;100450.23;1585890;89;25894;-82
2022/05/23 03:48:06;;;;;;;9.65;5.47;;;;;;;10.75;79.57;100451.21;1576259;89;25944;-82
2022/05/23 03:50:34;;;;;;;9.23;5.05;;;;;;;10.78;79.73;100451.64;1587949;88;26595;-82
2022/05/23 03:53:02;;;;;;;7.28;4.67;;;;;;;10.84;79.80;100452.22;1619387;86;28500;-81
2022/05/23 03:55:30;;;;;;;9.83;4.83;;;;;;;10.88;79.61;100451.34;1619115;87;25816;-81
2022/05/23 03:58:07;;;;;;;8.03;5.25;;;;;;;10.90;79.65;100448.45;1601279;87;25938;-81
2022/05/23 04:00:34;;;;;;;7.80;5.05;;;;;;;10.92;79.62;100450.44;1599069;88;26372;-83
2022/05/23 04:03:01;;;;;;;8.25;5.05;;;;;;;10.93;79.63;100448.89;1586487;88;26340;-82
2022/05/23 04:05:28;;;;;;;10.03;4.87;;;;;;;10.94;79.60;100453.75;1584458;89;27494;-82
2022/05/23 04:08:12;;;;;;;12.43;6.12;;;;;;;10.93;79.59;100459.61;1587271;88;25944;-81
2022/05/23 04:10:41;;;;;;;7.28;4.92;;;;;;;10.90;79.60;100461.86;1597043;87;25961;-82
2022/05/23 04:13:08;;;;;;;6.70;5.12;;;;;;;10.83;79.45;100458.61;1581107;89;25926;-81
2022/05/23 04:15:35;;;;;;;6.85;4.95;;;;;;;10.86;79.86;100456.06;1606394;88;26088;-81
2022/05/23 04:18:02;;;;;;;6.65;4.90;;;;;;;10.88;79.80;100457.20;1606912;88;27459;-82
2022/05/23 04:20:28;;;;;;;9.65;5.45;;;;;;;10.91;80.02;100460.81;1606664;88;25997;-81
2022/05/23 04:22:56;;;;;;;8.85;5.83;;;;;;;10.93;79.83;100467.65;1605253;88;25326;-81
2022/05/23 04:25:24;;;;;;;8.18;4.78;;;;;;;10.92;79.86;100464.67;1607198;88;25842;-81
2022/05/23 04:27:51;;;;;;;13.45;5.65;;;;;;;10.92;79.92;100466.01;1606756;88;26191;-82
2022/05/23 04:30:17;;;;;;;6.80;4.87;;;;;;;10.95;80.30;100467.48;1599651;88;27642;-81
2022/05/23 04:35:31;;;;;;;8.83;4.78;;;;;;;10.96;80.24;100462.42;1603258;88;25826;-81
2022/05/23 04:37:58;;;;;;;7.90;4.70;;;;;;;11.00;80.26;100455.66;1612824;87;25952;-81
2022/05/23 04:40:30;;;;;;;8.80;5.53;;;;;;;10.99;80.16;100457.50;1610567;87;25898;-81
2022/05/23 04:42:58;;;;;;;7.15;4.53;;;;;;;11.02;80.12;100454.44;1605092;87;27571;-82
2022/05/23 04:45:24;;;;;;;7.30;4.95;;;;;;;11.02;80.13;100457.63;1607320;87;25854;-81
2022/05/23 04:50:39;;;;;;;7.67;4.95;;;;;;;11.14;80.08;100462.27;1605422;87;25788;-82
2022/05/23 04:53:07;;;;;;;8.50;5.03;;;;;;;11.18;79.92;100462.73;1606372;87;26033;-82
2022/05/23 04:55:37;;;;;;;7.97;4.92;;;;;;;11.20;79.97;100463.36;1607238;87;27005;-81
2022/05/23 04:58:04;;;;;;;9.68;5.15;;;;;;;11.26;80.36;100464.76;1606597;87;25896;-81
2022/05/23 05:00:31;;;;;;;12.10;5.65;;;;;;;11.35;80.09;100466.78;1608585;87;25830;-81
2022/05/23 05:02:59;;;;;;;9.65;4.60;;;;;;;11.39;79.84;100462.69;1606846;87;25794;-81
2022/05/23 05:05:28;;;;;;;10.80;5.00;;;;;;;11.51;79.68;100459.77;1605690;88;25857;-81
2022/05/23 05:07:57;;;;;;;7.62;4.47;;;;;;;11.57;79.31;100463.00;1583260;88;28392;-80
2022/05/23 05:10:24;;;;;;;8.23;4.87;;;;;;;11.58;78.46;100459.31;1608045;87;25352;-81
2022/05/23 05:12:51;;;;;;;8.85;5.12;;;;;;;11.57;78.40;100462.50;1606038;87;25915;-81
2022/05/23 05:15:21;;;;;;;7.83;4.62;;;;;;;11.61;78.45;100457.05;1607162;88;26563;-80
2022/05/23 05:17:48;;;;;;;5.55;4.37;;;;;;;11.70;78.41;100461.78;1598623;87;25865;-81
2022/05/23 05:20:18;;;;;;;6.42;4.53;;;;;;;11.78;78.09;100458.13;1595434;88;27437;-81
2022/05/23 05:22:59;;;;;;;11.65;5.22;;;;;;;11.86;77.63;100456.62;1597015;87;26044;-81
2022/05/23 05:25:26;;;;;;;9.20;4.97;;;;;;;11.90;77.47;100453.84;1607155;88;25885;-81
2022/05/23 05:27:57;;;;;;;;;;;;;;;11.95;77.40;100462.14;1609742;87;26022;-82
2022/05/23 05:30:23;;;;;;;7.33;4.78;;;;;;;12.03;77.56;100461.97;1606422;88;25893;-81
2022/05/23 05:33:13;;;;;;;7.15;4.60;;;;;;;12.05;77.04;100456.72;1606663;88;27490;-81
2022/05/23 05:35:57;;;;;;;7.90;4.60;;;;;;;12.16;76.81;100462.03;1607989;87;26035;-81
2022/05/23 05:38:33;;;;;;;7.08;4.67;;;;;;;12.26;76.96;100465.16;1607661;88;25816;-80
2022/05/23 05:41:13;;;;;;;7.17;4.50;;;;;;;12.41;77.15;100461.81;1607643;87;26015;-81
2022/05/23 05:43:49;;;;;;;5.90;4.17;;;;;;;12.47;75.93;100467.72;1595746;89;25704;-81
2022/05/23 05:46:25;;;;;;;7.55;4.53;;;;;;;12.52;75.63;100462.58;1589821;87;27477;-81
2022/05/23 05:49:05;;;;;;;5.78;5.00;;;;;;;12.57;74.97;100465.49;1606910;88;26005;-81
2022/05/23 05:51:34;;;;;;;5.87;4.25;;;;;;;12.63;75.37;100463.84;1607314;88;25894;-80
2022/05/23 05:54:21;;;;;;;9.70;4.67;;;;;;;12.74;74.99;100464.59;1606378;89;25891;-81
2022/05/23 05:56:51;;;;;;;7.58;4.22;;;;;;;12.81;74.67;100466.25;1605684;87;25932;-82
2022/05/23 05:59:20;;;;;;;7.25;4.33;;;;;;;12.94;75.47;100466.78;1606808;88;27651;-81
2022/05/23 06:01:46;;;;;;;7.90;4.53;;;;;;;13.02;74.92;100465.26;1607377;87;25864;-82
2022/05/23 06:04:13;;;;;;;7.00;4.47;;;;;;;13.07;74.68;100448.00;1605061;88;25897;-81
2022/05/23 06:12:15;;;;;;;5.40;4.17;;;;;;;13.38;74.33;100459.49;1600153;87;27457;-81
2022/05/23 06:14:44;;;;;;;6.28;4.25;;;;;;;13.50;74.54;100464.54;1607825;88;25838;-82
2022/05/23 06:17:11;;;;;;;5.47;3.75;;;;;;;13.60;73.50;100464.42;1584486;88;25938;-81
2022/05/23 06:19:46;;;;;;;7.87;3.90;;;;;;;13.65;73.18;100468.67;1607055;88;26656;-81
2022/05/23 06:22:22;;;;;;;7.58;4.05;;;;;;;13.76;73.48;100463.99;1608461;87;25866;-81
2022/05/23 06:24:56;;;;;;;6.80;3.83;;;;;;;13.87;72.95;100459.31;1605381;88;27124;-81
2022/05/23 06:27:23;;;;;;;6.42;3.58;;;;;;;13.98;72.31;100459.17;1607592;88;25883;-81
2022/05/23 06:30:10;;;;;;;8.83;3.83;;;;;;;14.10;72.33;100460.16;1600744;87;25979;-81
2022/05/23 06:32:47;;;;;;;6.75;3.83;;;;;;;14.19;72.67;100462.09;1603596;87;25885;-81
2022/05/23 06:35:16;;;;;;;7.65;4.10;;;;;;;14.24;71.22;100467.13;1589137;88;25972;-81
2022/05/23 06:37:43;;;;;;;5.90;3.77;;;;;;;14.31;71.82;100472.02;1596415;88;28284;-81
2022/05/23 06:40:16;;;;;;;4.85;3.72;;;;;;;14.39;70.99;100473.66;1596530;88;25960;-81
2022/05/23 06:43:01;;;;;;;6.30;3.10;;;;;;;14.49;70.65;100468.11;1598688;87;25833;-81
2022/05/23 06:45:47;;;;;;;6.60;3.83;;;;;;;14.61;71.30;100473.63;1607279;88;26694;-81
2022/05/23 06:48:32;;;;;;;5.40;3.30;;;;;;;14.66;69.96;100471.13;1607294;88;26141;-81
2022/05/23 06:51:04;;;;;;;4.35;2.98;;;;;;;14.74;69.82;100479.46;1596516;88;28416;-81
2022/05/23 06:53:38;;;;;;;6.40;3.25;;;;;;;14.83;69.03;100481.70;1605870;88;25631;-81
2022/05/23 06:56:21;;;;;;;3.95;2.77;;;;;;;14.87;68.00;100488.31;1606101;88;25933;-81
2022/05/23 06:58:49;;;;;;;4.22;3.22;;;;;;;14.88;67.69;100477.84;1605727;88;25786;-80
2022/05/23 07:01:17;;;;;;;3.75;3.27;;;;;;;14.94;67.74;100478.31;1605257;88;25373;-81
2022/05/23 07:03:58;;;;;;;9.18;4.00;;;;;;;15.01;67.65;100479.08;1606940;88;27650;-81
2022/05/23 07:14:41;;;;;;;4.47;2.92;;;;;;;15.29;64.92;100480.84;1604671;88;25828;-81
2022/05/23 07:17:08;;;;;;;9.40;2.67;;;;;;;15.32;64.88;100476.36;1607582;88;27539;-81
2022/05/23 07:19:55;;;;;;;2.72;2.12;;;;;;;15.41;65.34;100484.49;1607474;87;25803;-80
2022/05/23 07:22:21;;;;;;;2.85;1.98;;;;;;;15.55;65.77;100489.27;1607367;87;25916;-80
2022/05/23 07:24:48;;;;;;;5.40;2.40;;;;;;;15.60;64.29;100477.80;1607568;88;25754;-80
2022/05/23 07:27:18;;;;;;;3.90;2.37;;;;;;;15.64;63.29;100477.66;1605834;88;25940;-80
2022/05/23 07:29:44;;;;;;;4.67;2.12;;;;;;;15.69;62.36;100476.48;1606619;88;27712;-80
2022/05/23 07:32:15;;;;;;;3.12;2.10;;;;;;;15.67;61.25;100482.11;1606597;87;26486;-80
2022/05/23 07:34:42;;;;;;;5.28;2.12;;;;;;;15.66;61.55;100483.14;1607477;88;25945;-81
2022/05/23 07:37:10;;;;;;;3.83;1.77;;;;;;;15.76;61.57;100489.40;1607249;88;26521;-81
2022/05/23 07:39:39;;;;;;;3.17;2.25;;;;;;;15.78;59.83;100481.90;1605766;88;25920;-81
2022/05/23 07:42:24;;;;;;;2.55;1.92;;;;;;;15.83;60.98;100478.81;1606274;88;27468;-81
2022/05/23 07:44:51;;;;;;;3.65;2.02;;;;;;;15.88;59.39;100478.14;1611170;87;25903;-81
2022/05/23 07:47:18;;;;;;;3.45;1.80;;;;;;;15.89;59.07;100475.21;1606749;88;25777;-80
2022/05/23 07:49:49;;;;;;;3.15;2.17;;;;;;;15.90;58.51;100476.05;1604999;88;25829;-80
2022/05/23 07:52:15;;;;;;;3.47;1.92;;;;;;;15.89;58.03;100481.13;1606020;88;25875;-80
2022/05/23 08:00:37;;;;;;;2.40;2.10;;;;;;;16.12;59.03;100475.91;1600891;88;26585;-80
2022/05/23 08:03:18;;;;;;;2.00;1.60;;;;;;;16.13;57.69;100476.19;1604687;88;25872;-80
2022/05/23 08:06:02;;;;;;;2.35;1.67;;;;;;;16.13;57.39;100474.84;1576124;89;25817;-80
2022/05/23 08:08:29;;;;;;;2.77;2.12;;;;;;;16.19;59.32;100480.69;1586869;89;27499;-81
2022/05/23 08:10:55;;;;;;;2.90;1.95;;;;;;;16.29;59.23;100479.66;1585990;89;26247;-80
2022/05/23 08:13:22;;;;;;;5.08;2.15;;;;;;;16.37;57.70;100478.51;1607584;88;25988;-81
2022/05/23 08:15:48;;;;;;;3.75;2.15;;;;;;;16.41;58.32;100479.70;1612203;87;26514;-80
2022/05/23 08:18:17;;;;;;;1.85;1.62;;;;;;;16.50;59.07;100469.74;1608568;88;25867;-80
2022/05/23 08:20:48;;;;;;;1.82;1.67;;;;;;;16.55;57.36;100467.16;1612672;87;27505;-81
2022/05/23 08:23:16;;;;;;;2.65;1.82;;;;;;;16.59;57.08;100475.66;1605203;88;25949;-82
2022/05/23 08:25:44;;;;;;;2.12;1.57;;;;;;;16.60;56.85;100482.70;1579924;89;26027;-81
2022/05/23 08:28:11;;;;;;;3.20;1.77;;;;;;;16.49;56.14;100476.16;1572469;89;25780;-81
2022/05/23 08:30:38;;;;;;;4.97;1.87;;;;;;;16.41;56.58;100474.30;1608533;87;25908;-81
2022/05/23 08:33:07;;;;;;;2.92;1.70;;;;;;;16.36;56.13;100473.62;1622265;86;27462;-81
2022/05/23 08:35:35;;;;;;;3.33;1.90;;;;;;;16.39;55.68;100470.47;1613021;87;25367;-80
2022/05/23 08:38:02;;;;;;;3.72;1.67;;;;;;;16.47;56.63;100472.02;1622095;87;25807;-80
2022/05/23 08:41:18;;;;;;;3.58;2.10;;;;;;;16.59;56.46;100467.03;1622590;87;26060;-80
2022/05/23 08:44:24;;;;;;;4.95;2.02;;;;;;;16.75;57.02;100468.23;1607319;86;25869;-80
2022/05/23 08:47:08;;;;;;;4.05;2.02;;;;;;;16.88;56.40;100475.65;1609664;87;27631;-80
2022/05/23 08:50:08;;;;;;;2.17;1.70;;;;;;;17.03;56.62;100473.03;1599738;88;26258;-80
2022/05/23 08:52:51;;;;;;;2.90;1.67;;;;;;;17.13;56.24;100467.34;1587058;89;25794;-80
2022/05/23 08:55:29;;;;;;;3.17;1.52;;;;;;;17.12;55.55;100468.42;1585721;89;25850;-80
2022/05/23 08:58:09;;;;;;;4.08;1.75;;;;;;;17.20;56.61;100468.08;1569167;90;25960;-80
2022/05/23 09:00:42;;;;;;;1.62;1.52;;;;;;;17.35;56.77;100475.73;1584222;90;27489;-80
2022/05/23 09:03:31;;;;;;;2.08;1.70;;;;;;;17.45;56.11;100457.05;1615870;87;25478;-80
2022/05/23 09:06:09;;;;;;;4.67;1.90;;;;;;;17.51;56.28;100462.91;1607245;88;25758;-80
2022/05/23 09:08:49;;;;;;;2.08;1.30;;;;;;;17.64;56.27;100460.77;1607155;88;26656;-80
2022/05/23 09:11:36;;;;;;;4.25;1.87;;;;;;;17.77;55.98;100459.70;1607043;88;26366;-80
2022/05/23 09:14:05;;;;;;;5.33;1.95;;;;;;;17.88;55.34;100462.14;1606973;87;27454;-80
2022/05/23 09:16:40;;;;;;;3.25;1.35;;;;;;;18.04;53.70;100457.32;1606989;88;25871;-80
2022/05/23 09:19:43;;;;;;;1.67;1.40;;;;;;;17.98;54.26;100460.47;1607376;88;25528;-80
2022/05/23 09:22:23;;;;;;;3.33;1.90;;;;;;;17.89;54.52;100456.47;1606804;87;26422;-80
2022/05/23 09:24:59;;;;;;;2.35;1.40;;;;;;;17.71;54.20;100461.48;1607601;88;26000;-79
2022/05/23 09:27:35;;;;;;;2.60;1.55;;;;;;;17.71;54.17;100453.87;1606749;88;28316;-80
2022/05/23 09:30:05;;;;;;;7.30;1.67;;;;;;;17.65;53.96;100442.64;1607135;88;25357;-80
2022/05/23 09:32:45;;;;;;;1.70;1.57;;;;;;;17.60;53.99;100441.98;1608272;87;25649;-80
2022/05/23 09:35:25;;;;;;;2.77;1.87;;;;;;;17.59;53.42;100444.42;1607635;88;25765;-80
2022/05/23 09:38:25;;;;;;;6.00;1.60;;;;;;;17.65;53.58;100438.58;1607049;88;25852;-80
2022/05/23 09:41:06;;;;;;;4.58;1.52;;;;;;;17.78;53.90;100428.02;1607293;87;28338;-80
2022/05/23 09:49:21;;;;;;;2.05;1.40;;;;;;;18.36;53.51;100432.78;1593645;89;26555;-80
2022/05/23 09:52:00;;;;;;;2.08;1.32;;;;;;;18.17;52.31;100436.20;1607118;87;25994;-81
2022/05/23 09:54:40;;;;;;;1.77;1.42;;;;;;;17.96;52.44;100431.95;1591413;89;27492;-81
2022/05/23 09:57:18;;;;;;;1.45;1.20;;;;;;;17.79;51.84;100426.45;1606709;88;25946;-81
2022/05/23 09:59:56;;;;;;;1.50;1.40;;;;;;;17.72;52.75;100429.80;1607212;88;26286;-81
2022/05/23 10:02:38;;;;;;;1.85;1.32;;;;;;;17.73;52.07;100428.73;1605975;87;25797;-81
2022/05/23 10:05:25;;;;;;;2.62;1.30;;;;;;;17.80;52.40;100424.54;1607424;88;25882;-80
2022/05/23 10:07:56;;;;;;;1.80;1.32;;;;;;;17.95;52.18;100432.48;1607100;88;27495;-80
2022/05/23 10:10:33;;;;;;;1.52;1.37;;;;;;;18.01;52.37;100417.96;1607456;88;26105;-80
2022/05/23 10:13:30;;;;;;;1.42;1.32;;;;;;;18.15;52.03;100418.00;1595835;89;25426;-82
2022/05/23 10:16:00;;;;;;;2.75;1.00;;;;;;;18.24;52.19;100411.11;1600662;88;26160;-80
2022/05/23 10:18:30;;;;;;;3.25;1.50;;;;;;;18.38;52.88;100415.20;1607650;88;25327;-81
2022/05/23 10:20:59;;;;;;;2.10;1.30;;;;;;;18.48;53.31;100419.48;1607411;89;28731;-80
2022/05/23 10:23:33;;;;;;;1.30;1.07;;;;;;;18.39;50.87;100418.19;1606944;87;26118;-80
2022/05/23 10:26:20;;;;;;;2.62;1.20;;;;;;;18.37;51.92;100416.78;1607021;88;25868;-81
2022/05/23 10:28:55;;;;;;;3.20;1.60;;;;;;;18.39;51.63;100416.83;1607200;88;26661;-80
2022/05/23 10:31:52;;;;;;;1.85;1.42;;;;;;;18.53;53.34;100417.41;1607790;88;25919;-80
2022/05/23 10:34:39;;;;;;;3.17;1.20;;;;;;;18.55;51.64;100415.80;1607163;88;28331;-81
2022/05/23 10:37:18;;;;;;;2.40;1.30;;;;;;;18.68;52.08;100417.69;1607057;88;25967;-80
2022/05/23 10:42:58;;;;;;;1.47;1.20;;;;;;;18.81;51.25;100417.91;1595384;88;26509;-80
2022/05/23 10:45:33;;;;;;;3.90;1.22;;;;;;;18.71;50.70;100410.41;1595774;89;25962;-80
2022/05/23 10:48:27;;;;;;;1.87;1.15;;;;;;;18.56;50.21;100410.16;1595709;89;28791;-80
2022/05/23 10:51:25;;;;;;;2.45;1.17;;;;;;;18.53;50.08;100405.73;1595262;89;25823;-81
2022/05/23 10:54:17;;;;;;;2.20;1.42;;;;;;;18.44;50.17;100402.58;1595206;88;25306;-80
2022/05/23 10:57:27;;;;;;;1.42;0.98;;;;;;;18.41;50.29;100398.43;1597945;88;26605;-80
2022/05/23 11:00:14;;;;;;;3.17;1.45;;;;;;;18.44;48.46;100399.34;1597986;89;25952;-79
2022/05/23 11:02:57;;;;;;;2.25;1.40;;;;;;;18.42;49.65;100390.59;1577871;89;27895;-80
2022/05/23 11:05:40;;;;;;;1.75;1.20;;;;;;;18.42;49.32;100391.12;1597964;89;25643;-80
2022/05/23 11:08:51;;;;;;;1.37;1.20;;;;;;;18.50;48.34;100391.31;1575993;89;26509;-80
2022/05/23 11:11:26;;;;;;;1.92;1.30;;;;;;;18.46;49.01;100384.17;1598285;89;25849;-81
2022/05/23 11:14:33;;;;;;;2.02;1.37;;;;;;;18.43;48.42;100384.65;1598002;88;25403;-81
2022/05/23 11:17:08;;;;;;;2.52;1.40;;;;;;;18.45;49.17;100382.55;1598106;89;28330;-81
2022/05/23 11:19:58;;;;;;;3.65;1.45;;;;;;;18.49;49.51;100378.27;1597858;89;25792;-80
2022/05/23 11:22:35;;;;;;;4.72;1.32;;;;;;;18.44;50.05;100378.17;1610099;87;25788;-81
2022/05/23 11:25:27;;;;;;;2.08;1.12;;;;;;;18.49;50.29;100375.56;1621621;87;25993;-82
2022/05/23 11:34:03;;;;;;;2.12;1.10;;;;;;;18.86;49.60;100372.67;1622315;87;26645;-81
2022/05/23 11:39:50;;;;;;;2.58;1.27;;;;;;;19.06;49.63;100374.38;1587337;88;26647;-81
2022/05/23 11:43:00;;;;;;;2.42;1.10;;;;;;;19.13;50.10;100371.49;1599487;88;25854;-81
2022/05/23 11:48:46;;;;;;;54.53;16.17;;;;;;;19.32;48.89;100368.80;1586432;89;25893;-81
2022/05/23 11:51:27;;;;;;;17.25;10.45;;;;;;;19.43;48.48;100359.77;1579679;89;25893;-81
2022/05/23 11:54:06;;;;;;;2.15;1.92;;;;;;;19.63;50.16;100366.02;1587348;88;25942;-81
2022/05/23 11:57:02;;;;;;;28.15;19.77;;;;;;;19.87;50.46;100360.60;1588453;88;26035;-81
2022/05/23 12:02:16;;;;;;;3.02;1.32;;;;;;;20.28;49.07;100359.20;1587358;88;26387;-83
2022/05/23 12:04:55;;;;;;;3.83;2.17;;;;;;;20.41;48.74;100354.19;1592637;87;25900;-81
2022/05/23 12:07:44;;;;;;;5.85;1.50;;;;;;;20.51;48.49;100358.36;1593054;87;25899;-82
2022/05/23 12:10:28;;;;;;;76.10;11.68;;;;;;;20.61;47.18;100357.12;1594501;87;26300;-81
2022/05/23 12:12:58;;;;;;;7.58;1.85;;;;;;;20.68;47.48;100359.60;1612060;86;27458;-82
2022/05/23 12:15:47;;;;;;;18.12;8.00;;;;;;;20.69;46.86;100355.81;1630842;87;25355;-81
2022/05/23 12:18:27;;;;;;;115.62;8.85;;;;;;;20.69;47.29;100348.48;1647972;86;25915;-81
2022/05/23 12:20:57;;;;;;;2.87;1.70;;;;;;;20.74;46.15;100347.70;1633434;85;26033;-81
2022/05/23 12:23:38;;;;;;;2.52;1.70;;;;;;;20.74;45.59;100351.23;1648712;85;26019;-80
2022/05/23 12:26:12;;;;;;;3.70;2.20;;;;;;;20.82;46.37;100343.67;1631104;85;28410;-81
2022/05/23 12:28:58;;;;;;;2.12;1.55;;;;;;;20.88;44.82;100338.02;1639586;85;26562;-81
2022/05/23 12:31:29;;;;;;;5.62;1.50;;;;;;;20.89;45.79;100336.12;1631643;85;25373;-81
2022/05/23 12:34:12;;;;;;;7.53;2.60;;;;;;;20.93;45.42;100333.98;1640914;85;26306;-80
2022/05/23 12:36:49;;;;;;;5.60;1.65;;;;;;;20.98;45.80;100330.48;1658136;85;25298;-80
2022/05/23 12:39:26;;;;;;;3.35;1.20;;;;;;;20.92;46.02;100332.32;1640335;85;27473;-80
2022/05/23 12:42:07;;;;;;;2.10;1.30;;;;;;;20.85;45.15;100324.91;1620272;85;25661;-80
2022/05/23 12:51:06;;;;;;;1.67;1.30;;;;;;;20.50;46.01;100319.17;1658162;81;26302;-78
2022/05/23 12:53:56;;;;;;;8.48;1.57;;;;;;;20.59;45.82;100316.27;1635501;85;27468;-79
2022/05/23 12:56:43;;;;;;;2.60;1.37;;;;;;;20.58;44.85;100321.42;1662850;85;26124;-78
2022/05/23 12:59:28;;;;;;;2.40;1.52;;;;;;;20.40;44.44;100311.72;1656560;84;26576;-79
2022/05/23 13:02:02;;;;;;;1.65;1.22;;;;;;;20.42;44.49;100308.20;1663785;84;25816;-80